Time;durP1;ratioP1;P1;durP2;ratioP2;P2;SDS_P1;SDS_P2;PMS_P1;PMS_P2;Temp;Humidity;BMP_temperature;BMP_pressure;BME280_temperature;BME280_humidity;BME280_pressure;Samples;Min_cycle;Max_cycle;Signal;HPM_P1;HPM_P2
2022/07/29 00:01:49;;;;;;;4.75;3.28;;;;;;;23.05;55.30;100112.44;5028225;28;20029;-29
2022/07/29 00:04:15;;;;;;;5.97;3.05;;;;;;;23.01;55.67;100125.81;5027301;28;20024;-29
2022/07/29 00:06:41;;;;;;;6.18;3.20;;;;;;;23.16;55.28;100124.72;5028437;28;20068;-28
2022/07/29 00:09:07;;;;;;;4.82;3.20;;;;;;;23.62;53.97;100121.06;5028316;28;20078;-34
2022/07/29 00:11:32;;;;;;;6.07;2.60;;;;;;;23.49;54.58;100116.44;5026695;28;20033;-27
2022/07/29 00:13:58;;;;;;;9.05;3.38;;;;;;;23.95;53.35;100111.97;5028335;28;20026;-28
2022/07/29 00:16:23;;;;;;;7.18;3.10;;;;;;;23.86;53.63;100104.53;5028130;28;20046;-28
2022/07/29 00:18:49;;;;;;;4.90;2.90;;;;;;;22.97;56.42;100115.81;5028368;28;20079;-27
2022/07/29 00:21:14;;;;;;;6.50;3.63;;;;;;;22.80;56.38;100083.75;5028208;28;20064;-28
2022/07/29 00:23:40;;;;;;;4.53;3.00;;;;;;;23.29;55.28;100090.44;5027900;28;20029;-28
2022/07/29 00:26:05;;;;;;;5.97;3.10;;;;;;;22.91;56.51;100078.94;5026709;28;20078;-29
2022/07/29 00:28:31;;;;;;;4.95;3.10;;;;;;;22.69;58.18;100098.66;5027931;28;20059;-28
2022/07/29 00:30:56;;;;;;;4.63;3.30;;;;;;;22.71;58.16;100085.56;5027933;28;20033;-28
2022/07/29 00:33:23;;;;;;;5.65;3.13;;;;;;;22.94;57.77;100090.00;5026675;28;20040;-28
2022/07/29 00:35:48;;;;;;;6.45;3.80;;;;;;;22.50;58.12;100041.66;5028154;28;20083;-30
2022/07/29 00:38:16;;;;;;;6.55;3.67;;;;;;;23.00;57.79;100082.56;5028055;28;20029;-33
2022/07/29 00:40:42;;;;;;;7.15;3.65;;;;;;;22.90;57.92;100082.75;5028133;28;20148;-29
2022/07/29 00:43:08;;;;;;;8.90;4.80;;;;;;;23.02;57.59;100104.84;5026419;28;20390;-30
2022/07/29 00:45:34;;;;;;;5.88;3.72;;;;;;;23.10;57.35;100119.69;5025278;28;20576;-31
2022/07/29 00:47:59;;;;;;;6.28;3.70;;;;;;;23.21;57.60;100113.75;5027599;28;20113;-30
2022/07/29 00:50:26;;;;;;;5.93;4.05;;;;;;;23.40;56.79;100113.63;5027715;28;20064;-31
2022/07/29 00:52:52;;;;;;;8.52;3.70;;;;;;;23.31;57.02;100109.19;5026251;28;20083;-30
2022/07/29 00:55:18;;;;;;;9.13;3.88;;;;;;;23.16;57.39;100105.66;5025979;28;20040;-32
2022/07/29 00:57:45;;;;;;;5.97;3.83;;;;;;;23.12;58.07;100101.94;5026188;28;20028;-28
2022/07/29 01:00:24;;;;;;;6.07;3.78;;;;;;;22.96;57.95;100125.06;5026127;28;20562;-30
2022/07/29 01:02:50;;;;;;;4.88;3.65;;;;;;;23.00;58.50;100120.63;5026290;28;20033;-28
2022/07/29 01:05:21;;;;;;;6.72;3.95;;;;;;;23.38;57.21;100109.59;5027513;28;20091;-29
2022/07/29 01:07:49;;;;;;;8.20;3.90;;;;;;;22.78;58.75;100105.81;5026047;28;20095;-28
2022/07/29 01:10:16;;;;;;;6.45;3.80;;;;;;;23.03;58.60;100107.28;5025582;28;20041;-32
2022/07/29 01:12:44;;;;;;;7.50;3.83;;;;;;;23.15;58.36;100106.78;5026138;28;20025;-29
2022/07/29 01:15:10;;;;;;;6.07;3.80;;;;;;;23.25;58.06;100106.59;5026005;28;20029;-30
2022/07/29 01:17:51;;;;;;;6.88;4.20;;;;;;;23.45;57.40;100110.78;5026914;28;20065;-28
2022/07/29 01:20:30;;;;;;;7.55;4.32;;;;;;;23.45;57.43;100116.22;5027380;28;20111;-32
2022/07/29 01:23:31;;;;;;;5.45;3.92;;;;;;;23.01;58.51;100111.38;5025483;28;20107;-29
2022/07/29 01:26:27;;;;;;;8.07;3.92;;;;;;;22.84;58.55;100110.06;5027168;28;20056;-31
2022/07/29 01:29:12;;;;;;;5.50;3.45;;;;;;;22.82;59.01;100106.00;5027423;28;20753;-28
2022/07/29 01:31:56;;;;;;;5.88;4.40;;;;;;;23.25;57.79;100098.44;5025744;28;20595;-30
2022/07/29 01:34:27;;;;;;;8.45;4.22;;;;;;;23.14;57.69;100064.38;5026959;28;20030;-28
2022/07/29 01:37:06;;;;;;;6.38;3.83;;;;;;;22.61;59.78;100098.22;5025850;28;20041;-30
2022/07/29 01:39:36;;;;;;;8.50;4.13;;;;;;;22.36;60.40;100098.66;5026743;28;20114;-29
2022/07/29 01:42:20;;;;;;;8.85;4.05;;;;;;;22.44;60.57;100071.59;5025873;28;20037;-28
2022/07/29 01:45:31;;;;;;;6.13;3.97;;;;;;;22.23;61.00;100097.44;5027134;28;20033;-32
2022/07/29 01:48:02;;;;;;;5.93;3.80;;;;;;;22.11;61.10;100097.94;5010553;28;20408;-27
2022/07/29 01:50:39;;;;;;;8.23;4.47;;;;;;;21.95;61.64;100091.13;5027023;28;20469;-30
2022/07/29 01:53:09;;;;;;;7.30;4.05;;;;;;;22.06;61.18;100085.22;5025656;28;20030;-27
2022/07/29 01:55:40;;;;;;;6.50;4.07;;;;;;;21.88;61.60;100088.75;5026771;28;20053;-29
2022/07/29 01:58:07;;;;;;;8.07;4.30;;;;;;;21.84;61.53;100068.72;5030021;28;20032;-30
2022/07/29 02:00:34;;;;;;;5.45;3.85;;;;;;;22.23;60.25;100064.84;5029310;28;20118;-27
2022/07/29 02:03:09;;;;;;;6.72;4.30;;;;;;;22.25;60.16;100063.50;5029501;28;20034;-28
2022/07/29 02:05:37;;;;;;;8.90;4.25;;;;;;;21.77;62.34;100076.44;5030587;28;20191;-30
2022/07/29 02:08:05;;;;;;;8.80;4.30;;;;;;;21.40;63.55;100076.06;5029263;28;20029;-27
2022/07/29 02:10:34;;;;;;;9.60;4.10;;;;;;;21.38;63.69;100082.91;5030512;28;20036;-31
2022/07/29 02:13:02;;;;;;;9.18;4.40;;;;;;;21.77;62.19;100076.44;5030112;28;20644;-30
2022/07/29 02:15:30;;;;;;;;;;;;;;;22.05;61.11;100086.34;5029469;28;20396;-28
2022/07/29 02:18:04;;;;;;;5.57;4.43;;;;;;;21.77;62.28;100076.44;5029989;28;20309;-32
2022/07/29 02:20:31;;;;;;;5.43;3.80;;;;;;;21.93;61.60;100083.25;5028956;28;20476;-32
2022/07/29 02:22:59;;;;;;;11.05;4.60;;;;;;;22.03;61.46;100077.69;5028913;28;20044;-28
2022/07/29 02:25:26;;;;;;;8.40;4.30;;;;;;;21.77;62.42;100090.00;5028363;28;20084;-29
2022/07/29 02:27:53;;;;;;;5.82;3.90;;;;;;;21.46;63.88;100074.94;5028593;28;20182;-29
2022/07/29 02:30:22;;;;;;;6.60;3.78;;;;;;;21.34;64.52;100079.16;5028749;28;20036;-31
2022/07/29 02:32:49;;;;;;;8.27;3.95;;;;;;;21.24;64.99;100075.44;5028828;28;20036;-28
2022/07/29 02:35:16;;;;;;;7.53;4.18;;;;;;;21.14;65.74;100086.41;5029924;28;20084;-28
2022/07/29 02:37:44;;;;;;;7.60;4.50;;;;;;;21.15;64.93;100055.50;5028390;28;20037;-31
2022/07/29 02:40:15;;;;;;;7.25;4.30;;;;;;;21.32;64.40;100079.44;5028326;28;20029;-31
2022/07/29 02:42:43;;;;;;;7.68;4.18;;;;;;;21.30;64.35;100067.25;5030259;28;20037;-30
2022/07/29 02:45:10;;;;;;;6.07;3.95;;;;;;;21.10;65.37;100071.81;5029809;28;20045;-29
2022/07/29 02:47:41;;;;;;;7.07;4.90;;;;;;;20.80;66.35;100086.50;5028031;28;20095;-28
2022/07/29 02:50:20;;;;;;;6.50;4.07;;;;;;;20.74;66.18;100066.81;5029716;28;20063;-29
2022/07/29 02:53:04;;;;;;;7.50;4.88;;;;;;;21.15;64.76;100081.81;5028449;28;20091;-29
2022/07/29 02:56:06;;;;;;;10.02;4.47;;;;;;;21.35;63.74;100076.16;5028388;28;20056;-28
2022/07/29 02:58:40;;;;;;;11.82;5.15;;;;;;;21.19;63.59;100086.38;5044838;28;20091;-29
2022/07/29 03:01:14;;;;;;;8.55;4.53;;;;;;;20.85;64.61;100086.47;5028331;28;20033;-30
2022/07/29 03:03:43;;;;;;;9.25;5.15;;;;;;;20.55;65.50;100082.13;5028149;28;20041;-28
2022/07/29 03:06:11;;;;;;;11.90;4.72;;;;;;;20.45;66.05;100067.59;5029495;28;20033;-28
2022/07/29 03:08:36;;;;;;;8.77;4.70;;;;;;;20.96;64.42;100076.31;5026998;28;20021;-31
2022/07/29 03:11:04;;;;;;;10.73;4.72;;;;;;;20.52;65.28;100066.44;5029182;28;20033;-28
2022/07/29 03:13:30;;;;;;;8.57;4.75;;;;;;;20.85;64.67;100083.75;5026964;28;20701;-32
2022/07/29 03:15:57;;;;;;;12.85;5.07;;;;;;;20.80;65.31;100089.22;5029017;28;20041;-29
2022/07/29 03:18:23;;;;;;;9.75;4.68;;;;;;;21.06;63.33;100093.31;5027752;28;20064;-27
2022/07/29 03:20:49;;;;;;;9.30;5.20;;;;;;;20.91;63.97;100089.94;5027737;28;20026;-28
2022/07/29 03:23:22;;;;;;;10.20;4.63;;;;;;;20.77;64.04;100101.44;5027626;28;20037;-28
2022/07/29 03:25:49;;;;;;;9.70;5.00;;;;;;;20.56;64.19;100094.59;5027320;28;20113;-28
2022/07/29 03:28:14;;;;;;;10.50;4.70;;;;;;;20.60;64.47;100101.06;5027677;28;20029;-28
2022/07/29 03:30:40;;;;;;;12.23;4.85;;;;;;;20.60;64.66;100114.63;5028992;28;20036;-33
2022/07/29 03:33:05;;;;;;;9.95;4.75;;;;;;;20.70;63.71;100111.00;5028960;28;20037;-30
2022/07/29 03:35:31;;;;;;;6.57;4.65;;;;;;;20.31;64.92;100093.72;5028422;28;20033;-34
2022/07/29 03:37:57;;;;;;;7.80;4.45;;;;;;;20.40;64.57;100113.66;5028747;28;20670;-29
2022/07/29 03:40:31;;;;;;;8.65;4.60;;;;;;;20.57;62.83;100101.59;5028453;28;20026;-28
2022/07/29 03:42:58;;;;;;;9.82;5.28;;;;;;;20.63;62.88;100112.13;5028659;28;20511;-29
2022/07/29 03:45:26;;;;;;;8.40;4.65;;;;;;;20.69;62.54;100109.38;5026860;28;20124;-30
2022/07/29 03:47:57;;;;;;;11.02;4.82;;;;;;;20.79;62.23;100112.81;5027305;28;20033;-28
2022/07/29 03:50:22;;;;;;;9.63;4.30;;;;;;;20.81;62.06;100113.34;5027109;28;20087;-28
2022/07/29 03:52:49;;;;;;;7.85;4.65;;;;;;;21.00;60.67;100120.75;5028415;28;20022;-31
2022/07/29 03:55:15;;;;;;;7.25;4.32;;;;;;;20.82;61.05;100114.97;5027042;28;20497;-28
2022/07/29 03:57:42;;;;;;;10.25;4.28;;;;;;;20.93;60.55;100117.56;5028569;28;20810;-28
2022/07/29 04:00:08;;;;;;;7.80;4.20;;;;;;;21.02;59.96;100107.69;5028198;28;20718;-28
2022/07/29 04:02:35;;;;;;;9.95;4.88;;;;;;;21.03;60.60;100122.88;5026647;28;20820;-31
2022/07/29 04:05:00;;;;;;;9.45;4.72;;;;;;;20.99;60.71;100124.56;5028345;28;20826;-28
2022/07/29 04:07:26;;;;;;;10.00;4.82;;;;;;;21.10;60.61;100120.63;5027559;28;20121;-30
2022/07/29 04:09:51;;;;;;;10.85;4.90;;;;;;;20.99;60.51;100108.28;5028411;28;20044;-30
2022/07/29 04:12:17;;;;;;;10.60;5.03;;;;;;;21.48;59.40;100126.22;5028015;28;20500;-29
2022/07/29 04:14:42;;;;;;;10.52;5.03;;;;;;;21.61;59.57;100128.19;5010385;28;20405;-29
2022/07/29 04:17:08;;;;;;;8.80;5.10;;;;;;;21.50;59.52;100132.16;5027671;28;20053;-28
2022/07/29 04:19:34;;;;;;;12.57;4.93;;;;;;;21.36;60.96;100133.91;5027376;28;20029;-29
2022/07/29 04:22:00;;;;;;;12.27;4.68;;;;;;;21.04;62.12;100132.63;5026005;28;20027;-29
2022/07/29 04:24:26;;;;;;;9.65;4.88;;;;;;;21.01;61.43;100138.63;5026429;28;20032;-28
2022/07/29 04:26:52;;;;;;;10.23;4.88;;;;;;;20.93;62.47;100141.97;5026477;28;20031;-30
2022/07/29 04:29:17;;;;;;;6.40;4.43;;;;;;;21.09;62.38;100135.28;5026056;28;20021;-36
2022/07/29 04:31:43;;;;;;;12.98;4.13;;;;;;;21.43;62.40;100139.81;5027575;28;20029;-31
2022/07/29 04:34:09;;;;;;;8.52;4.57;;;;;;;21.52;61.28;100146.22;5026397;28;20053;-27
2022/07/29 04:36:35;;;;;;;11.38;5.20;;;;;;;21.26;62.02;100130.22;5026072;28;20083;-29
2022/07/29 04:39:01;;;;;;;13.38;6.22;;;;;;;21.64;60.85;100137.69;5026502;28;20805;-28
2022/07/29 04:41:27;;;;;;;12.63;4.90;;;;;;;21.73;60.78;100145.97;5027427;28;20037;-28
2022/07/29 04:43:53;;;;;;;10.20;5.68;;;;;;;21.86;61.28;100139.81;5026221;28;20021;-30
2022/07/29 04:46:18;;;;;;;7.70;5.13;;;;;;;21.89;60.78;100147.38;5027228;28;20021;-30
2022/07/29 04:48:46;;;;;;;12.63;5.30;;;;;;;21.95;60.42;100150.84;5027238;28;20075;-28
2022/07/29 04:51:11;;;;;;;8.75;5.82;;;;;;;21.90;60.59;100138.13;5027330;28;20037;-31
2022/07/29 04:53:37;;;;;;;7.50;4.97;;;;;;;21.93;60.80;100117.75;5026522;28;20033;-30
2022/07/29 04:56:02;;;;;;;9.93;5.80;;;;;;;22.18;60.12;100144.53;5025818;28;20045;-31
2022/07/29 04:58:28;;;;;;;8.30;5.53;;;;;;;22.30;59.05;100146.81;5027783;28;20559;-30
2022/07/29 05:00:53;;;;;;;8.55;5.05;;;;;;;22.31;58.36;100115.81;5027216;28;20472;-29
2022/07/29 05:03:19;;;;;;;9.73;4.80;;;;;;;22.49;58.24;100154.16;5026719;28;20025;-28
2022/07/29 05:05:44;;;;;;;6.57;4.50;;;;;;;22.32;59.20;100163.63;5025377;28;20030;-29
2022/07/29 05:08:09;;;;;;;7.85;4.30;;;;;;;22.36;59.01;100158.44;5027121;28;20032;-28
2022/07/29 05:10:38;;;;;;;8.90;4.90;;;;;;;22.52;58.58;100148.13;5027106;28;20528;-29
2022/07/29 05:13:07;;;;;;;7.88;4.68;;;;;;;22.94;58.97;100176.22;5026819;28;20395;-30
2022/07/29 05:15:36;;;;;;;6.25;4.30;;;;;;;22.83;57.50;100142.97;5025299;28;20041;-29
2022/07/29 05:18:03;;;;;;;7.78;4.55;;;;;;;23.22;57.13;100172.47;5025293;28;20141;-27
2022/07/29 05:20:29;;;;;;;6.35;4.32;;;;;;;23.35;57.39;100175.50;5026915;28;20398;-30
2022/07/29 05:22:56;;;;;;;8.98;4.60;;;;;;;23.49;56.79;100161.91;5027087;28;20076;-28
2022/07/29 05:25:21;;;;;;;7.70;4.60;;;;;;;23.60;56.63;100172.28;5025192;28;20450;-28
2022/07/29 05:27:47;;;;;;;9.93;4.72;;;;;;;23.73;57.03;100173.38;5027347;28;20036;-27
2022/07/29 05:30:12;;;;;;;7.32;4.65;;;;;;;23.84;56.83;100165.84;5026748;28;20025;-27
2022/07/29 05:32:38;;;;;;;10.07;5.82;;;;;;;23.79;57.64;100157.78;5031875;28;20029;-31
2022/07/29 05:35:04;;;;;;;10.23;4.57;;;;;;;23.83;57.83;100169.69;5033398;28;20036;-29
2022/07/29 05:37:29;;;;;;;8.23;4.50;;;;;;;23.98;57.60;100149.47;5033533;28;20033;-27
2022/07/29 05:39:54;;;;;;;9.07;5.70;;;;;;;24.21;56.13;100172.94;5033314;28;20037;-30
2022/07/29 05:42:20;;;;;;;10.27;5.75;;;;;;;24.22;56.51;100160.09;5033612;28;20026;-27
2022/07/29 05:44:47;;;;;;;7.07;5.20;;;;;;;24.29;56.36;100160.47;5033403;28;20472;-28
2022/07/29 05:47:13;;;;;;;8.73;5.43;;;;;;;24.38;56.37;100164.06;5033209;28;20512;-28
2022/07/29 05:49:38;;;;;;;10.38;7.43;;;;;;;24.43;55.89;100187.69;5031427;28;20029;-27
2022/07/29 05:52:04;;;;;;;8.73;5.93;;;;;;;24.58;55.90;100183.78;5033620;28;20040;-29
2022/07/29 05:54:29;;;;;;;11.95;6.38;;;;;;;24.51;56.38;100167.09;5033414;28;20044;-29
2022/07/29 05:56:56;;;;;;;12.80;5.80;;;;;;;24.67;56.81;100171.84;5033126;28;20037;-30
2022/07/29 05:59:21;;;;;;;8.40;6.53;;;;;;;24.77;55.79;100170.78;5031666;28;20032;-27
2022/07/29 06:01:47;;;;;;;9.95;7.13;;;;;;;24.84;55.37;100159.44;5033250;28;20025;-28
2022/07/29 06:04:12;;;;;;;8.55;6.38;;;;;;;25.18;55.46;100180.63;5032909;28;20033;-29
2022/07/29 06:06:37;;;;;;;8.85;6.53;;;;;;;25.18;54.62;100183.38;5033445;28;20037;-29
2022/07/29 06:09:03;;;;;;;12.50;6.90;;;;;;;25.40;55.29;100192.66;5031620;28;20714;-33
2022/07/29 06:11:29;;;;;;;8.23;6.10;;;;;;;25.57;54.14;100195.44;5032924;28;20045;-30
2022/07/29 06:13:54;;;;;;;9.60;6.20;;;;;;;25.71;53.16;100189.84;5031638;28;20029;-30
2022/07/29 06:16:20;;;;;;;11.77;6.75;;;;;;;25.69;53.69;100191.31;5032924;28;20076;-33
2022/07/29 06:18:45;;;;;;;9.32;6.22;;;;;;;25.78;52.18;100181.19;5033075;28;20413;-28
2022/07/29 06:21:11;;;;;;;8.95;6.10;;;;;;;25.88;53.45;100191.81;5033231;28;20401;-29
2022/07/29 06:23:38;;;;;;;9.40;6.53;;;;;;;25.98;52.94;100197.00;5032967;28;20029;-28
2022/07/29 06:26:04;;;;;;;9.65;6.93;;;;;;;25.94;52.52;100187.03;5031772;28;20037;-29
2022/07/29 06:28:29;;;;;;;10.07;6.85;;;;;;;25.94;53.24;100190.56;5032916;28;20549;-30
2022/07/29 06:30:55;;;;;;;12.85;7.13;;;;;;;25.82;52.50;100177.50;5032824;28;20461;-35
2022/07/29 06:33:20;;;;;;;8.70;6.60;;;;;;;25.93;52.77;100186.25;5031185;28;20022;-29
2022/07/29 06:35:49;;;;;;;10.98;7.30;;;;;;;25.95;52.56;100180.44;5033057;28;20022;-28
2022/07/29 06:38:15;;;;;;;8.77;6.93;;;;;;;26.15;52.78;100190.75;5031523;28;20040;-29
2022/07/29 06:41:00;;;;;;;8.88;6.22;;;;;;;26.23;51.29;100192.69;5032887;28;20029;-30
2022/07/29 06:43:41;;;;;;;12.18;6.85;;;;;;;26.24;51.42;100179.84;5030245;28;20037;-31
2022/07/29 06:46:12;;;;;;;10.00;6.60;;;;;;;26.25;51.00;100185.00;5028333;28;20108;-30
2022/07/29 06:48:38;;;;;;;8.70;7.00;;;;;;;26.31;51.63;100155.53;5029728;28;20021;-29
2022/07/29 06:51:05;;;;;;;8.52;6.32;;;;;;;26.57;51.06;100173.88;5028184;28;20035;-27
2022/07/29 06:53:32;;;;;;;8.00;6.05;;;;;;;26.66;48.65;100166.47;5027964;28;20417;-28
2022/07/29 06:55:59;;;;;;;8.00;6.57;;;;;;;26.72;50.89;100186.25;5028113;28;20132;-29
2022/07/29 06:58:25;;;;;;;8.50;5.82;;;;;;;26.82;48.83;100164.03;5029413;28;20036;-31
2022/07/29 07:00:51;;;;;;;8.25;6.10;;;;;;;26.73;48.95;100180.47;5028337;28;20033;-29
2022/07/29 07:03:17;;;;;;;9.32;5.88;;;;;;;26.92;48.62;100169.16;5029575;28;20025;-28
2022/07/29 07:05:43;;;;;;;11.30;5.85;;;;;;;27.06;47.64;100180.69;5027870;28;20030;-29
2022/07/29 07:08:08;;;;;;;10.10;6.15;;;;;;;27.20;48.39;100161.31;5027723;28;20033;-28
2022/07/29 07:10:34;;;;;;;7.22;5.45;;;;;;;27.45;48.02;100153.34;5027973;28;20030;-28
2022/07/29 07:13:00;;;;;;;8.07;5.38;;;;;;;27.77;46.23;100173.00;5027660;28;20033;-28
2022/07/29 07:15:27;;;;;;;7.05;5.55;;;;;;;27.85;46.27;100155.69;5027747;28;20414;-28
2022/07/29 07:17:52;;;;;;;9.15;5.47;;;;;;;27.93;45.00;100160.34;5027520;28;20061;-30
2022/07/29 07:20:18;;;;;;;5.95;4.50;;;;;;;28.00;44.05;100157.88;5029224;28;20064;-30
2022/07/29 07:22:44;;;;;;;9.05;4.70;;;;;;;28.33;43.85;100162.59;5029071;28;20021;-28
2022/07/29 07:25:11;;;;;;;7.63;4.50;;;;;;;28.27;43.92;100152.97;5027764;28;20455;-27
2022/07/29 07:27:37;;;;;;;8.80;4.85;;;;;;;28.42;42.18;100152.34;5028577;28;20504;-28
2022/07/29 07:30:05;;;;;;;7.28;4.63;;;;;;;28.55;43.88;100157.91;5029104;28;20068;-29
2022/07/29 07:32:31;;;;;;;6.32;4.70;;;;;;;28.69;43.75;100163.91;5029115;28;20083;-30
2022/07/29 07:34:58;;;;;;;9.85;4.97;;;;;;;29.02;42.06;100169.34;5027557;28;20033;-30
2022/07/29 07:37:24;;;;;;;6.22;4.68;;;;;;;29.28;40.67;100150.97;5027012;28;20034;-28
2022/07/29 07:39:51;;;;;;;7.15;4.32;;;;;;;29.33;40.41;100167.25;5027172;28;20044;-28
2022/07/29 07:42:16;;;;;;;7.22;4.32;;;;;;;29.25;40.71;100158.75;5027056;28;20060;-31
2022/07/29 07:44:42;;;;;;;6.72;4.22;;;;;;;29.23;39.95;100135.53;5028726;28;20401;-30
2022/07/29 07:47:08;;;;;;;5.72;4.20;;;;;;;29.52;39.56;100145.47;5027137;28;20099;-28
2022/07/29 07:49:33;;;;;;;7.97;4.63;;;;;;;29.73;39.07;100155.53;5028117;28;20025;-29
2022/07/29 07:51:59;;;;;;;6.97;5.07;;;;;;;29.59;38.65;100151.19;5028534;28;20026;-27
2022/07/29 07:54:24;;;;;;;7.35;4.32;;;;;;;29.80;37.60;100164.81;5028325;28;20111;-31
2022/07/29 07:56:50;;;;;;;7.75;4.53;;;;;;;29.83;39.61;100146.81;5027909;28;20109;-28
2022/07/29 07:59:16;;;;;;;7.53;3.95;;;;;;;29.98;37.91;100153.56;5028401;28;20032;-29
2022/07/29 08:01:42;;;;;;;6.18;4.25;;;;;;;29.77;38.26;100139.97;5026672;28;20036;-30
2022/07/29 08:04:07;;;;;;;5.53;4.20;;;;;;;30.04;36.99;100163.97;5028244;28;20025;-29
2022/07/29 08:06:34;;;;;;;6.07;4.40;;;;;;;29.99;38.95;100153.19;5026541;28;20034;-31
2022/07/29 08:09:00;;;;;;;8.07;4.35;;;;;;;30.31;38.44;100134.09;5028002;28;20528;-31
2022/07/29 08:11:26;;;;;;;6.47;4.00;;;;;;;30.66;35.68;100154.69;5026141;28;20044;-31
2022/07/29 08:13:51;;;;;;;6.03;4.20;;;;;;;30.58;36.51;100132.47;5028236;28;20108;-29
2022/07/29 08:16:17;;;;;;;6.32;4.60;;;;;;;30.55;36.50;100146.16;5027346;28;20053;-32
2022/07/29 08:18:45;;;;;;;5.03;4.22;;;;;;;30.56;35.45;100147.75;5027725;28;20554;-30
2022/07/29 08:21:11;;;;;;;6.28;4.40;;;;;;;30.72;36.20;100140.31;5026432;28;20179;-29
2022/07/29 08:23:39;;;;;;;6.85;4.38;;;;;;;30.92;35.99;100121.97;5025843;28;20401;-31
2022/07/29 08:26:10;;;;;;;5.28;4.15;;;;;;;31.07;34.76;100130.59;5027827;28;20037;-29
2022/07/29 08:28:36;;;;;;;6.20;3.75;;;;;;;31.19;35.56;100136.00;5027703;28;20032;-29
2022/07/29 08:31:02;;;;;;;5.10;3.63;;;;;;;31.32;34.38;100147.72;5026219;28;20040;-28
2022/07/29 08:33:27;;;;;;;7.28;4.13;;;;;;;31.09;35.43;100140.09;5027765;28;20063;-28
2022/07/29 08:35:52;;;;;;;5.68;4.03;;;;;;;31.26;33.90;100143.63;5026125;28;20036;-32
2022/07/29 08:38:18;;;;;;;7.10;4.07;;;;;;;31.40;33.34;100141.22;5027065;28;20038;-35
2022/07/29 08:40:44;;;;;;;4.75;3.13;;;;;;;31.39;34.35;100136.88;5027440;28;20453;-29
2022/07/29 08:43:10;;;;;;;6.78;3.85;;;;;;;31.57;34.51;100137.31;5026227;28;20032;-29
2022/07/29 08:45:46;;;;;;;5.63;4.07;;;;;;;31.46;33.30;100134.28;5025921;28;20029;-29
2022/07/29 08:48:17;;;;;;;6.05;3.90;;;;;;;31.39;32.06;100139.63;5027324;28;20026;-28
2022/07/29 08:50:44;;;;;;;6.10;3.50;;;;;;;31.28;33.40;100141.31;5025454;28;20033;-32
2022/07/29 08:53:16;;;;;;;5.35;3.47;;;;;;;31.31;33.28;100135.09;5026191;28;20489;-28
2022/07/29 08:55:48;;;;;;;5.25;3.65;;;;;;;31.75;33.45;100126.66;5025597;28;20781;-30
2022/07/29 08:58:15;;;;;;;6.45;3.42;;;;;;;31.66;33.33;100128.84;5025876;28;20036;-31
2022/07/29 09:00:46;;;;;;;4.53;3.47;;;;;;;31.43;34.57;100121.22;5027053;28;20025;-29
2022/07/29 09:03:17;;;;;;;18.70;4.78;;;;;;;31.76;35.76;100112.53;5025732;28;20175;-28
2022/07/29 09:05:45;;;;;;;7.25;3.65;;;;;;;32.08;33.44;100111.63;5025538;28;20032;-28
2022/07/29 09:08:12;;;;;;;7.97;3.70;;;;;;;32.36;33.48;100103.88;5025450;28;20037;-31
2022/07/29 09:10:38;;;;;;;6.13;3.67;;;;;;;32.03;33.85;100077.66;5025725;28;20036;-29
2022/07/29 09:13:04;;;;;;;4.55;3.58;;;;;;;32.34;32.67;100097.94;5025597;28;20037;-31
2022/07/29 09:15:30;;;;;;;5.60;3.90;;;;;;;32.35;32.71;100099.53;5025220;28;20032;-31
2022/07/29 09:17:58;;;;;;;6.18;3.70;;;;;;;32.52;32.36;100097.47;5026615;28;20084;-29
2022/07/29 09:20:23;;;;;;;7.05;3.63;;;;;;;32.85;32.57;100096.09;5027023;28;20070;-31
2022/07/29 09:22:52;;;;;;;4.85;3.60;;;;;;;33.12;32.39;100102.47;5027156;28;20038;-30
2022/07/29 09:25:33;;;;;;;5.78;3.58;;;;;;;32.65;32.12;100095.34;5025318;28;20033;-35
2022/07/29 09:28:10;;;;;;;5.07;3.72;;;;;;;32.67;32.51;100084.75;5026658;28;20371;-30
2022/07/29 09:30:49;;;;;;;11.80;4.50;;;;;;;32.86;32.04;100084.69;5026628;28;20094;-29
2022/07/29 09:33:14;;;;;;;5.53;3.58;;;;;;;32.94;32.05;100085.59;5025549;28;20184;-30
2022/07/29 09:35:40;;;;;;;6.60;3.47;;;;;;;32.89;30.92;100072.09;5026431;28;20026;-28
2022/07/29 09:38:13;;;;;;;5.97;3.33;;;;;;;32.82;31.58;100084.63;5025355;28;20049;-28
2022/07/29 09:40:39;;;;;;;16.08;3.88;;;;;;;32.99;32.05;100088.03;5025105;28;20050;-34
2022/07/29 09:43:12;;;;;;;7.32;3.55;;;;;;;33.12;32.04;100063.78;5025089;28;20037;-30
2022/07/29 09:45:38;;;;;;;6.35;3.70;;;;;;;33.74;31.49;100066.25;5023779;28;20032;-29
2022/07/29 09:48:24;;;;;;;7.43;3.30;;;;;;;33.85;29.38;100082.97;5021437;28;20037;-31
2022/07/29 09:50:50;;;;;;;6.05;4.05;;;;;;;33.97;29.68;100089.06;5023548;28;20036;-32
2022/07/29 09:53:36;;;;;;;5.00;3.60;;;;;;;34.12;29.94;100075.38;5023799;28;20056;-34
2022/07/29 09:56:03;;;;;;;7.05;3.70;;;;;;;34.16;29.78;100071.53;5025208;28;20056;-29
2022/07/29 09:58:29;;;;;;;5.07;3.40;;;;;;;34.34;29.83;100071.69;5025350;28;20025;-31
2022/07/29 10:00:56;;;;;;;3.75;2.90;;;;;;;34.37;28.98;100059.06;5025240;28;20037;-31
2022/07/29 10:03:22;;;;;;;7.43;3.90;;;;;;;34.53;29.84;100061.56;5023530;28;20022;-28
2022/07/29 10:06:06;;;;;;;5.72;3.20;;;;;;;34.69;28.27;100070.44;5023602;28;20038;-30
2022/07/29 10:08:31;;;;;;;4.43;3.22;;;;;;;34.76;29.27;100062.22;5023626;28;20021;-33
2022/07/29 10:11:10;;;;;;;5.68;3.30;;;;;;;34.68;27.81;100048.69;5025148;28;20458;-30
2022/07/29 10:13:36;;;;;;;6.63;3.60;;;;;;;34.52;29.69;100043.38;5021934;28;20041;-27
2022/07/29 10:16:02;;;;;;;4.97;3.20;;;;;;;34.80;27.84;100056.72;5024802;28;20025;-32
2022/07/29 10:18:28;;;;;;;4.25;2.85;;;;;;;34.92;27.04;100050.03;5025670;28;20079;-28
2022/07/29 10:20:54;;;;;;;7.13;3.38;;;;;;;35.04;28.50;100048.94;5027697;28;20120;-28
2022/07/29 10:23:20;;;;;;;6.45;3.10;;;;;;;35.21;27.78;100049.09;5027324;28;20025;-31
2022/07/29 10:25:45;;;;;;;5.07;3.38;;;;;;;35.39;26.84;100032.56;5027713;28;20052;-30
2022/07/29 10:28:11;;;;;;;4.50;2.75;;;;;;;35.29;26.68;100032.47;5027883;28;20497;-29
2022/07/29 10:30:39;;;;;;;6.65;3.05;;;;;;;35.22;27.70;100052.66;5029109;28;20036;-30
2022/07/29 10:33:26;;;;;;;4.75;3.40;;;;;;;35.04;27.15;100049.72;5028502;28;20504;-28
2022/07/29 10:35:57;;;;;;;4.13;2.97;;;;;;;35.01;26.75;100043.00;5026846;28;20070;-35
2022/07/29 10:38:44;;;;;;;4.85;3.17;;;;;;;35.44;26.57;100036.94;5028697;28;20501;-28
2022/07/29 10:41:28;;;;;;;4.07;3.10;;;;;;;35.58;26.07;100048.09;5026512;28;20034;-29
2022/07/29 10:43:59;;;;;;;6.85;3.35;;;;;;;35.96;26.22;100031.19;5027594;28;20072;-28
2022/07/29 10:46:26;;;;;;;5.00;3.20;;;;;;;35.81;24.81;100016.50;5024642;28;20036;-29
2022/07/29 10:49:15;;;;;;;6.80;3.60;;;;;;;36.09;26.84;100018.53;5026833;28;20387;-32
2022/07/29 10:52:05;;;;;;;6.25;3.85;;;;;;;36.40;25.06;100011.44;5023630;28;20069;-33
2022/07/29 10:54:41;;;;;;;7.25;3.67;;;;;;;36.43;25.01;100012.63;5027770;28;20528;-33
2022/07/29 10:57:26;;;;;;;6.60;3.63;;;;;;;36.73;25.36;100009.47;5026900;28;20025;-32
2022/07/29 11:00:00;;;;;;;16.55;4.53;;;;;;;36.54;25.56;100019.00;5026158;28;20045;-30
2022/07/29 11:02:42;;;;;;;9.15;3.95;;;;;;;36.33;25.59;100013.44;5028234;28;20026;-29
2022/07/29 11:05:18;;;;;;;8.75;3.83;;;;;;;36.41;26.33;100012.25;5025590;28;20412;-29
2022/07/29 11:08:19;;;;;;;9.23;4.10;;;;;;;36.63;25.19;100009.50;5025263;28;20038;-28
2022/07/29 11:10:45;;;;;;;5.78;4.20;;;;;;;36.61;24.29;99990.41;5025482;28;20065;-28
2022/07/29 11:13:10;;;;;;;5.70;4.50;;;;;;;36.81;24.05;99993.59;5028146;28;20864;-29
2022/07/29 11:15:56;;;;;;;8.25;5.75;;;;;;;37.22;24.35;99997.91;5025048;28;20051;-33
2022/07/29 11:18:21;;;;;;;5.80;4.30;;;;;;;37.03;24.24;99996.34;5025572;28;20053;-32
2022/07/29 11:20:49;;;;;;;5.55;4.00;;;;;;;36.28;24.30;99984.09;5027558;28;20049;-34
2022/07/29 11:23:29;;;;;;;;;;;;;;;36.49;25.45;99993.59;5026770;28;20025;-29
2022/07/29 11:26:26;;;;;;;7.63;4.13;;;;;;;36.45;24.20;99990.03;5026316;28;19917;-29
2022/07/29 11:29:16;;;;;;;;;;;;;;;36.73;25.11;99992.03;5027381;28;20117;-32
2022/07/29 11:31:53;;;;;;;5.18;3.58;;;;;;;36.96;23.29;99983.25;5040691;28;19917;-30
2022/07/29 11:34:25;;;;;;;4.80;3.50;;;;;;;37.24;24.56;99979.63;5023872;28;20092;-33